Time;durP1;ratioP1;P1;durP2;ratioP2;P2;SDS_P1;SDS_P2;PMS_P1;PMS_P2;Temp;Humidity;BMP_temperature;BMP_pressure;BME280_temperature;BME280_humidity;BME280_pressure;Samples;Min_cycle;Max_cycle;Signal;HPM_P1;HPM_P2
2021/05/21 00:01:19;;;;;;;4.00;2.13;;;;;;;12.16;62.88;100545.91;4961514;28;20050;-74
2021/05/21 00:03:46;;;;;;;3.40;2.25;;;;;;;12.05;63.42;100548.38;5002762;28;20134;-73
2021/05/21 00:06:13;;;;;;;5.68;2.28;;;;;;;12.15;63.13;100553.91;4960551;28;20085;-73
2021/05/21 00:08:40;;;;;;;5.78;2.20;;;;;;;12.02;64.17;100548.63;4977677;28;20170;-73
2021/05/21 00:11:07;;;;;;;4.60;2.30;;;;;;;11.99;64.31;100543.53;4983615;28;20051;-75
2021/05/21 00:13:34;;;;;;;3.63;2.35;;;;;;;12.13;63.88;100538.19;4973641;28;20047;-71
2021/05/21 00:16:02;;;;;;;2.78;2.45;;;;;;;12.15;64.05;100527.50;4968350;28;20137;-73
2021/05/21 00:18:29;;;;;;;3.83;2.40;;;;;;;12.00;64.54;100525.91;4979170;28;20039;-73
2021/05/21 00:20:56;;;;;;;5.85;2.72;;;;;;;11.99;64.87;100521.59;4962654;28;20125;-73
2021/05/21 00:23:24;;;;;;;6.18;3.08;;;;;;;12.04;64.80;100522.97;4957961;28;20684;-74
2021/05/21 00:25:51;;;;;;;3.15;2.17;;;;;;;11.85;65.71;100527.78;4996705;28;20059;-73
2021/05/21 00:28:18;;;;;;;3.13;2.35;;;;;;;11.89;65.85;100516.91;4978046;28;20126;-75
2021/05/21 00:30:45;;;;;;;4.65;2.28;;;;;;;11.95;65.88;100518.28;4983990;28;20055;-73
2021/05/21 00:33:12;;;;;;;4.68;2.40;;;;;;;11.88;66.27;100511.72;4993626;28;20142;-74
2021/05/21 00:35:39;;;;;;;4.90;2.42;;;;;;;11.87;66.62;100507.41;4962420;28;20533;-73
2021/05/21 00:38:07;;;;;;;4.00;2.63;;;;;;;11.94;66.11;100508.69;4962343;28;20133;-75
2021/05/21 00:40:34;;;;;;;5.13;2.38;;;;;;;11.94;66.07;100503.41;4964767;28;20068;-77
2021/05/21 00:43:01;;;;;;;4.30;2.90;;;;;;;11.90;66.50;100494.00;4932925;28;20145;-75
2021/05/21 00:45:29;;;;;;;3.42;2.67;;;;;;;11.85;67.00;100488.19;4973097;28;20035;-72
2021/05/21 00:47:56;;;;;;;3.55;2.53;;;;;;;11.82;67.38;100488.38;4980063;28;20070;-77
2021/05/21 00:50:24;;;;;;;3.70;2.72;;;;;;;11.91;66.83;100482.50;4954305;28;20122;-74
2021/05/21 00:52:52;;;;;;;4.75;2.63;;;;;;;11.85;67.20;100489.03;4931546;28;20147;-73
2021/05/21 00:55:19;;;;;;;2.95;2.50;;;;;;;11.88;67.70;100480.06;4942425;28;20047;-74
2021/05/21 00:57:47;;;;;;;5.70;3.00;;;;;;;11.83;67.68;100480.38;4978493;23;21403;-71
2021/05/21 01:00:14;;;;;;;3.47;2.53;;;;;;;11.88;67.50;100474.78;5016537;28;20052;-72
2021/05/21 01:02:41;;;;;;;4.57;3.30;;;;;;;11.80;68.19;100470.00;5044925;28;20085;-71
2021/05/21 01:05:09;;;;;;;3.10;2.80;;;;;;;11.92;67.55;100468.38;4981540;28;20449;-71
2021/05/21 01:07:36;;;;;;;3.15;2.60;;;;;;;11.84;68.14;100463.63;4986270;28;20074;-73
2021/05/21 01:10:04;;;;;;;4.28;2.70;;;;;;;11.79;68.40;100459.53;4990131;28;20054;-71
2021/05/21 01:12:31;;;;;;;4.18;2.42;;;;;;;11.49;70.19;100455.38;5028238;28;20114;-72
2021/05/21 01:14:58;;;;;;;9.43;2.67;;;;;;;11.31;70.62;100443.38;5047282;28;20061;-73
2021/05/21 01:17:25;;;;;;;6.47;3.20;;;;;;;11.24;71.43;100444.72;4991612;28;20077;-73
2021/05/21 01:19:53;;;;;;;4.22;2.55;;;;;;;11.35;71.04;100436.97;5044123;28;20046;-72
2021/05/21 01:22:21;;;;;;;3.17;2.83;;;;;;;11.40;70.84;100432.25;4991746;28;20051;-73
2021/05/21 01:24:48;;;;;;;4.05;2.95;;;;;;;11.34;70.82;100435.25;5006691;28;20047;-71
2021/05/21 01:27:17;;;;;;;4.35;3.05;;;;;;;11.34;71.50;100430.84;5008297;28;20054;-71
2021/05/21 01:29:44;;;;;;;3.20;2.60;;;;;;;11.26;71.85;100419.97;5002983;28;20039;-73
2021/05/21 01:32:12;;;;;;;3.47;2.50;;;;;;;11.29;72.12;100417.13;5023091;28;20062;-71
2021/05/21 01:34:39;;;;;;;3.75;3.13;;;;;;;11.35;71.92;100410.63;5039182;28;20054;-74
2021/05/21 01:37:14;;;;;;;3.45;2.22;;;;;;;11.43;71.55;100416.22;5040733;28;20068;-73
2021/05/21 01:39:41;;;;;;;4.10;3.13;;;;;;;11.47;71.76;100415.06;5039338;28;20081;-72
2021/05/21 01:42:11;;;;;;;4.30;3.03;;;;;;;11.54;71.55;100415.53;5026382;28;20133;-74
2021/05/21 01:44:39;;;;;;;3.00;2.70;;;;;;;11.36;72.89;100412.31;5038783;28;20141;-72
2021/05/21 01:47:09;;;;;;;3.20;2.80;;;;;;;11.33;73.00;100405.44;5046463;28;20062;-73
2021/05/21 01:49:36;;;;;;;3.45;2.63;;;;;;;11.28;73.44;100399.63;5030934;28;20126;-72
2021/05/21 01:52:04;;;;;;;3.92;2.88;;;;;;;11.23;73.99;100385.91;5036658;28;20050;-74
2021/05/21 01:54:31;;;;;;;4.68;2.90;;;;;;;11.12;74.28;100385.75;5012077;28;20057;-73
2021/05/21 01:57:01;;;;;;;4.07;3.60;;;;;;;11.09;74.90;100392.06;5027835;28;20045;-74
2021/05/21 01:59:30;;;;;;;5.50;3.00;;;;;;;11.06;75.21;100386.16;5036838;28;20145;-73
2021/05/21 02:01:57;;;;;;;5.53;3.92;;;;;;;11.08;75.17;100381.66;5041722;28;20145;-73
2021/05/21 02:04:32;;;;;;;5.65;3.15;;;;;;;11.11;74.90;100379.63;5014092;28;20084;-73
2021/05/21 02:06:59;;;;;;;4.03;2.85;;;;;;;11.08;75.47;100374.59;5000026;28;20134;-73
2021/05/21 02:09:27;;;;;;;5.60;3.45;;;;;;;10.96;75.68;100367.47;5022714;28;20152;-74
2021/05/21 02:11:54;;;;;;;4.68;2.53;;;;;;;11.07;75.52;100369.41;5042823;28;20392;-72
2021/05/21 02:14:21;;;;;;;4.00;2.95;;;;;;;11.14;75.27;100361.00;4987072;28;20100;-73
2021/05/21 02:16:49;;;;;;;5.78;2.95;;;;;;;10.98;76.27;100354.19;4989590;28;20141;-72
2021/05/21 02:19:16;;;;;;;3.63;2.72;;;;;;;11.06;75.92;100352.75;5028063;28;20077;-74
2021/05/21 02:21:46;;;;;;;4.05;3.03;;;;;;;11.18;75.51;100340.56;4985463;28;20073;-73
2021/05/21 02:24:13;;;;;;;3.17;2.88;;;;;;;11.23;75.32;100337.63;5022875;28;20045;-73
2021/05/21 02:26:40;;;;;;;4.35;3.47;;;;;;;11.29;74.74;100337.22;5034674;28;20141;-72
2021/05/21 02:29:09;;;;;;;4.35;3.10;;;;;;;11.20;74.98;100330.75;4988638;28;20145;-73
2021/05/21 02:31:37;;;;;;;3.20;2.90;;;;;;;11.39;74.23;100325.97;5018950;28;20054;-72
2021/05/21 02:34:04;;;;;;;5.20;2.75;;;;;;;11.22;74.96;100320.97;5026487;28;20617;-73
2021/05/21 02:36:31;;;;;;;3.35;2.90;;;;;;;11.27;75.12;100318.03;5011363;28;20073;-73
2021/05/21 02:38:59;;;;;;;4.35;2.72;;;;;;;11.36;74.55;100320.06;4985845;28;20073;-72
2021/05/21 02:41:26;;;;;;;2.95;2.58;;;;;;;11.38;74.67;100315.50;4986245;28;20046;-72
2021/05/21 02:43:53;;;;;;;3.95;2.95;;;;;;;11.32;74.81;100310.66;4986970;28;20061;-73
2021/05/21 02:46:20;;;;;;;10.57;3.17;;;;;;;11.30;74.87;100305.50;4988540;28;20054;-73
2021/05/21 02:48:48;;;;;;;3.67;2.78;;;;;;;11.35;74.33;100313.09;5033930;28;20077;-73
2021/05/21 02:51:15;;;;;;;5.63;3.13;;;;;;;11.18;75.27;100302.84;5032346;28;21452;-73
2021/05/21 02:53:42;;;;;;;3.60;2.92;;;;;;;11.13;75.33;100301.34;4995927;28;20054;-73
2021/05/21 02:56:09;;;;;;;3.60;2.50;;;;;;;11.24;75.04;100303.28;4984141;28;20055;-73
2021/05/21 02:58:36;;;;;;;3.70;3.05;;;;;;;11.12;75.36;100293.53;5022513;28;20496;-73
2021/05/21 03:01:04;;;;;;;4.55;2.75;;;;;;;11.04;76.03;100288.81;5018640;28;20083;-72
2021/05/21 03:03:31;;;;;;;4.00;2.50;;;;;;;11.02;75.69;100293.31;5020660;28;20158;-73
2021/05/21 03:05:58;;;;;;;5.00;3.08;;;;;;;10.92;76.49;100294.88;5014943;28;20164;-74
2021/05/21 03:08:25;;;;;;;4.60;3.40;;;;;;;10.81;77.03;100287.69;5032767;28;20047;-73
2021/05/21 03:10:52;;;;;;;5.07;3.00;;;;;;;10.85;76.94;100285.66;5014891;28;20131;-73
2021/05/21 03:13:19;;;;;;;3.42;2.80;;;;;;;10.90;76.71;100281.81;5012265;28;20059;-72
2021/05/21 03:15:48;;;;;;;4.53;2.80;;;;;;;10.98;76.53;100283.91;5049862;28;20162;-74
2021/05/21 03:18:23;;;;;;;6.65;3.00;;;;;;;11.02;76.53;100281.94;5017030;28;20068;-73
2021/05/21 03:20:51;;;;;;;6.85;3.28;;;;;;;10.97;76.17;100274.34;5036840;28;20178;-74
2021/05/21 03:23:18;;;;;;;6.88;3.50;;;;;;;10.85;76.85;100276.00;4993968;28;20085;-73
2021/05/21 03:25:46;;;;;;;3.80;2.78;;;;;;;10.98;76.81;100272.53;5023718;28;20091;-72
2021/05/21 03:28:17;;;;;;;3.40;3.10;;;;;;;11.11;76.04;100270.78;5044064;28;20050;-74
2021/05/21 03:30:44;;;;;;;3.63;2.58;;;;;;;11.19;75.56;100265.00;5041226;28;20050;-73
2021/05/21 03:33:11;;;;;;;4.68;3.17;;;;;;;11.17;75.71;100259.84;4986634;28;20058;-74
2021/05/21 03:35:39;;;;;;;4.18;2.60;;;;;;;11.31;75.25;100262.41;5010839;28;20085;-74
2021/05/21 03:38:07;;;;;;;3.50;2.70;;;;;;;11.47;74.24;100264.81;4995854;28;20089;-74
2021/05/21 03:40:35;;;;;;;6.85;2.53;;;;;;;11.52;74.17;100261.88;4957561;28;20133;-74
2021/05/21 03:43:03;;;;;;;4.53;2.92;;;;;;;11.50;74.45;100266.41;5029409;28;20054;-73
2021/05/21 03:45:31;;;;;;;3.55;2.72;;;;;;;11.65;73.50;100260.91;5025684;28;20062;-73
2021/05/21 03:47:59;;;;;;;4.35;3.00;;;;;;;11.79;72.60;100245.94;4989008;28;20042;-74
2021/05/21 03:50:26;;;;;;;5.78;2.95;;;;;;;11.72;73.06;100253.44;5028062;28;20078;-74
2021/05/21 03:52:53;;;;;;;3.13;2.60;;;;;;;11.71;73.14;100242.97;4987301;28;20532;-75
2021/05/21 03:55:20;;;;;;;3.83;2.58;;;;;;;11.88;72.62;100250.59;4992234;28;20538;-74
2021/05/21 03:57:48;;;;;;;3.70;2.60;;;;;;;11.90;72.52;100251.34;5045582;28;20062;-73
2021/05/21 04:00:17;;;;;;;5.35;3.05;;;;;;;11.91;72.07;100253.03;5010424;28;20050;-74
2021/05/21 04:02:46;;;;;;;3.55;2.78;;;;;;;11.94;72.49;100252.81;5005296;28;20074;-73
2021/05/21 04:05:13;;;;;;;5.53;3.03;;;;;;;11.96;72.01;100255.31;5014162;28;20073;-73
2021/05/21 04:07:40;;;;;;;2.88;2.55;;;;;;;11.96;71.84;100245.63;4986023;28;20058;-75
2021/05/21 04:10:08;;;;;;;3.50;2.90;;;;;;;11.88;72.41;100246.16;5035272;28;20136;-74
2021/05/21 04:12:36;;;;;;;6.93;3.15;;;;;;;11.75;73.08;100247.09;4983172;28;20125;-73
2021/05/21 04:15:04;;;;;;;4.15;2.97;;;;;;;11.74;73.33;100245.41;4989941;28;20054;-73
2021/05/21 04:17:31;;;;;;;5.65;2.50;;;;;;;11.73;73.28;100241.09;4986157;28;20522;-74
2021/05/21 04:19:59;;;;;;;4.07;3.20;;;;;;;11.81;72.80;100236.13;5042644;28;20047;-73
2021/05/21 04:22:26;;;;;;;8.60;3.15;;;;;;;11.70;72.98;100236.84;4987650;28;20125;-72
2021/05/21 04:24:54;;;;;;;3.55;2.40;;;;;;;11.68;73.56;100236.13;5041190;28;20141;-71
2021/05/21 04:27:21;;;;;;;4.30;2.72;;;;;;;11.98;72.17;100229.66;5039431;28;20400;-72
2021/05/21 04:29:48;;;;;;;6.18;2.97;;;;;;;13.51;66.85;100213.91;4984022;28;20047;-73
2021/05/21 04:32:15;;;;;;;5.13;2.60;;;;;;;15.57;60.18;100213.81;4988827;28;20137;-72
2021/05/21 04:34:43;;;;;;;6.35;2.50;;;;;;;17.01;53.98;100207.13;5025563;28;20129;-73
2021/05/21 04:37:10;;;;;;;6.60;2.63;;;;;;;17.53;52.45;100204.91;5040874;28;20062;-73
2021/05/21 04:39:37;;;;;;;4.38;1.98;;;;;;;18.78;48.11;100199.91;5024294;28;20043;-73
2021/05/21 04:42:05;;;;;;;5.75;2.35;;;;;;;20.09;45.34;100195.34;5033973;28;20070;-74
2021/05/21 04:44:32;;;;;;;6.43;2.22;;;;;;;20.03;44.57;100196.81;4999476;28;20069;-71
2021/05/21 04:47:01;;;;;;;3.60;2.47;;;;;;;20.18;43.85;100189.03;5030204;28;20125;-72
2021/05/21 04:49:35;;;;;;;4.20;2.10;;;;;;;20.61;43.53;100184.44;5028591;28;20088;-71
2021/05/21 04:52:07;;;;;;;4.13;1.85;;;;;;;21.55;41.10;100175.00;5039066;28;20114;-72
2021/05/21 04:54:39;;;;;;;7.63;2.35;;;;;;;19.80;44.22;100182.38;5043760;28;20134;-73
2021/05/21 04:57:06;;;;;;;4.38;1.90;;;;;;;19.06;46.35;100173.94;5017149;28;20129;-71
2021/05/21 04:59:33;;;;;;;2.97;2.50;;;;;;;20.92;42.51;100164.03;5032918;28;20092;-70
2021/05/21 05:02:02;;;;;;;2.90;2.40;;;;;;;20.98;41.93;100165.19;4987498;28;20084;-71
2021/05/21 05:04:29;;;;;;;4.90;2.00;;;;;;;21.93;39.41;100152.75;5023481;28;20070;-71
2021/05/21 05:06:56;;;;;;;3.25;2.00;;;;;;;22.60;38.49;100151.31;5049175;28;20141;-70
2021/05/21 05:09:24;;;;;;;9.65;2.35;;;;;;;22.88;37.81;100146.25;5048192;28;20141;-70
2021/05/21 05:11:51;;;;;;;2.80;2.28;;;;;;;23.75;36.16;100149.19;5000683;28;20577;-71
2021/05/21 05:14:18;;;;;;;4.65;1.75;;;;;;;24.47;34.18;100143.00;5030652;28;20515;-69
2021/05/21 05:16:45;;;;;;;6.78;2.28;;;;;;;24.99;33.56;100136.38;4994467;28;20133;-69
2021/05/21 05:19:13;;;;;;;6.35;2.25;;;;;;;25.07;33.15;100140.78;5043685;28;20054;-69
2021/05/21 05:21:41;;;;;;;4.38;2.00;;;;;;;25.68;32.81;100122.94;5023229;28;20139;-70
2021/05/21 05:24:19;;;;;;;11.20;2.53;;;;;;;25.69;32.29;100116.50;5029062;28;20050;-74
2021/05/21 05:26:47;;;;;;;5.82;2.00;;;;;;;26.26;31.04;100117.13;4995464;28;20050;-70
2021/05/21 05:29:14;;;;;;;2.60;1.90;;;;;;;26.51;30.12;100118.22;5045750;28;20080;-69
2021/05/21 05:31:46;;;;;;;4.43;1.92;;;;;;;26.74;30.26;100111.56;5044421;28;20680;-74
2021/05/21 05:34:14;;;;;;;3.97;2.08;;;;;;;26.82;30.06;100110.53;4980808;28;20127;-71
2021/05/21 05:36:41;;;;;;;5.72;1.98;;;;;;;26.88;29.65;100115.91;5046893;28;20113;-75
2021/05/21 05:39:09;;;;;;;8.75;2.42;;;;;;;27.18;29.41;100108.22;5042331;28;20564;-72
2021/05/21 05:41:37;;;;;;;3.28;1.80;;;;;;;27.57;28.66;100098.34;5000122;28;20060;-70
2021/05/21 05:44:04;;;;;;;2.70;1.90;;;;;;;27.61;28.50;100094.16;4998916;28;20098;-70
2021/05/21 05:46:32;;;;;;;3.22;1.95;;;;;;;28.13;27.39;100094.94;4988240;28;20562;-70
2021/05/21 05:48:59;;;;;;;6.85;1.80;;;;;;;27.72;28.32;100096.22;5024754;28;20046;-71
2021/05/21 05:51:26;;;;;;;5.82;2.20;;;;;;;27.17;28.75;100093.06;5010438;28;20468;-71
2021/05/21 05:53:53;;;;;;;3.88;2.08;;;;;;;27.70;27.93;100087.47;5004688;28;20131;-72
2021/05/21 05:56:21;;;;;;;4.68;1.70;;;;;;;28.14;27.25;100076.81;5017073;28;20147;-69
2021/05/21 05:58:48;;;;;;;7.38;2.30;;;;;;;27.33;28.09;100074.72;5042591;28;20208;-70
2021/05/21 06:01:15;;;;;;;2.65;1.52;;;;;;;27.57;27.74;100074.00;5042800;28;20829;-70
2021/05/21 06:03:42;;;;;;;5.97;2.00;;;;;;;28.16;27.13;100066.63;5051821;28;20054;-69
2021/05/21 06:06:09;;;;;;;3.78;1.85;;;;;;;28.04;27.38;100063.78;5040214;28;20515;-71
2021/05/21 06:08:54;;;;;;;3.25;1.52;;;;;;;27.39;28.05;100066.59;5016673;28;20072;-69
2021/05/21 06:11:22;;;;;;;10.48;1.95;;;;;;;27.05;28.81;100069.56;5022323;28;20129;-70
2021/05/21 06:13:50;;;;;;;4.15;1.73;;;;;;;27.65;27.74;100071.06;4989845;28;20092;-70
2021/05/21 06:16:17;;;;;;;7.43;2.25;;;;;;;28.14;26.93;100057.88;5040296;28;20046;-70
2021/05/21 06:18:46;;;;;;;2.17;1.80;;;;;;;28.19;26.79;100056.19;5046448;28;20137;-71
2021/05/21 06:21:14;;;;;;;4.93;1.83;;;;;;;28.42;26.31;100047.50;4981711;28;20724;-70
2021/05/21 06:23:44;;;;;;;3.60;1.58;;;;;;;29.25;25.34;100046.28;5016698;28;20217;-68
2021/05/21 06:28:51;;;;;;;2.33;1.60;;;;;;;28.55;25.90;100033.03;5033131;28;20050;-70
2021/05/21 06:31:19;;;;;;;3.20;1.52;;;;;;;27.22;27.92;100038.38;5043388;28;20046;-70
2021/05/21 06:33:46;;;;;;;3.40;1.67;;;;;;;27.01;27.77;100023.22;4986510;28;20046;-69
2021/05/21 06:36:14;;;;;;;4.45;1.63;;;;;;;25.27;30.28;100028.66;5047959;28;20147;-70
2021/05/21 06:38:41;;;;;;;5.25;2.35;;;;;;;22.72;35.06;100027.28;4984596;28;20803;-70
2021/05/21 06:41:08;;;;;;;3.42;1.48;;;;;;;23.98;33.27;100018.16;5037604;28;20122;-68
2021/05/21 06:43:36;;;;;;;2.15;1.75;;;;;;;23.26;34.61;100018.16;5040606;28;20782;-69
2021/05/21 06:46:04;;;;;;;4.88;2.00;;;;;;;22.02;36.51;100014.16;5048551;28;20054;-70
2021/05/21 06:48:32;;;;;;;4.78;2.03;;;;;;;21.37;38.15;100019.91;5026534;28;20069;-69
2021/05/21 06:51:01;;;;;;;5.18;2.30;;;;;;;20.40;40.49;100000.44;5039230;28;20058;-67
2021/05/21 06:53:29;;;;;;;3.13;1.73;;;;;;;21.32;38.53;100004.38;5043369;28;20047;-69
2021/05/21 06:55:57;;;;;;;4.15;1.98;;;;;;;21.15;38.84;100010.78;5036743;28;20424;-68
2021/05/21 06:58:26;;;;;;;4.43;1.73;;;;;;;22.56;35.99;99997.09;5034795;28;20571;-69
2021/05/21 07:00:56;;;;;;;6.82;2.40;;;;;;;24.10;34.07;99983.53;5031503;28;20134;-67
2021/05/21 07:03:28;;;;;;;7.75;2.22;;;;;;;27.19;28.82;99980.16;5048049;28;20076;-70
2021/05/21 07:05:56;;;;;;;5.03;1.60;;;;;;;28.62;26.38;99976.91;4983660;28;20073;-69
2021/05/21 07:08:24;;;;;;;2.60;1.17;;;;;;;29.41;24.86;99968.94;4996997;28;20141;-71
2021/05/21 07:10:51;;;;;;;2.42;1.40;;;;;;;27.23;27.51;99969.75;5022738;28;20433;-69
2021/05/21 07:13:20;;;;;;;3.90;1.20;;;;;;;26.47;29.37;99967.69;5004481;28;20050;-72
2021/05/21 07:15:49;;;;;;;5.55;1.42;;;;;;;27.43;27.64;99961.56;5023797;28;20077;-71
2021/05/21 07:18:16;;;;;;;1.55;1.08;;;;;;;27.92;26.36;99951.88;5000606;28;20082;-69
2021/05/21 07:20:46;;;;;;;3.42;1.00;;;;;;;28.48;26.41;99948.31;5035539;28;20038;-74
2021/05/21 07:23:14;;;;;;;7.00;1.08;;;;;;;27.15;28.08;99951.91;5041677;28;20069;-76
2021/05/21 07:25:42;;;;;;;3.10;1.17;;;;;;;25.67;29.24;99947.94;5015480;28;20120;-73
2021/05/21 07:28:11;;;;;;;3.42;1.40;;;;;;;23.88;32.78;99952.28;4966080;28;20138;-70
2021/05/21 07:30:38;;;;;;;2.22;1.10;;;;;;;23.20;33.07;99939.19;4976959;28;20342;-71
2021/05/21 07:33:05;;;;;;;5.18;1.17;;;;;;;22.47;35.18;99938.19;4982316;28;20053;-72
2021/05/21 07:35:33;;;;;;;4.47;1.23;;;;;;;23.92;33.07;99930.22;4988660;28;20139;-70
2021/05/21 07:38:00;;;;;;;5.57;1.33;;;;;;;22.96;34.38;99915.31;5019429;28;20127;-71
2021/05/21 07:40:28;;;;;;;4.55;1.15;;;;;;;23.50;33.07;99912.19;4982039;28;20123;-72
2021/05/21 07:42:55;;;;;;;1.95;1.08;;;;;;;22.45;34.63;99926.81;5034248;28;20124;-70
2021/05/21 07:45:22;;;;;;;1.63;0.98;;;;;;;24.99;30.56;99910.19;5025674;28;20122;-70
2021/05/21 07:47:49;;;;;;;4.82;1.25;;;;;;;25.82;29.05;99905.44;4966094;28;20051;-70
2021/05/21 07:50:16;;;;;;;12.60;2.70;;;;;;;25.10;30.23;99904.25;4966475;28;20169;-71
2021/05/21 07:52:44;;;;;;;6.00;1.52;;;;;;;23.41;32.48;99907.97;5010628;28;20860;-72
2021/05/21 07:55:12;;;;;;;4.18;1.45;;;;;;;22.16;35.00;99890.09;4977862;28;20181;-69
2021/05/21 07:57:40;;;;;;;6.53;1.45;;;;;;;22.35;35.05;99885.19;5012281;28;20153;-74
2021/05/21 08:00:09;;;;;;;6.72;1.45;;;;;;;23.85;32.58;99886.31;5036173;28;20566;-71
2021/05/21 08:02:37;;;;;;;3.88;1.25;;;;;;;24.10;32.60;99885.88;5013883;28;20624;-70
2021/05/21 08:05:05;;;;;;;7.82;1.10;;;;;;;22.45;34.82;99880.38;5040242;28;20134;-71
2021/05/21 08:07:32;;;;;;;5.18;1.55;;;;;;;22.54;33.94;99875.75;5048705;28;20458;-70
2021/05/21 08:10:01;;;;;;;4.68;1.30;;;;;;;23.37;33.18;99866.41;5040877;28;20143;-71
2021/05/21 08:12:28;;;;;;;5.95;2.05;;;;;;;26.86;27.88;99858.72;5007528;28;20040;-70
2021/05/21 08:14:56;;;;;;;13.48;1.27;;;;;;;27.36;27.01;99848.06;5036007;28;20108;-71
2021/05/21 08:17:23;;;;;;;6.03;1.15;;;;;;;28.47;25.06;99849.19;4990304;28;20062;-73
2021/05/21 08:20:07;;;;;;;5.07;1.80;;;;;;;29.53;23.78;99835.00;5051295;28;20047;-71
2021/05/21 08:22:34;;;;;;;7.25;1.33;;;;;;;29.20;24.18;99829.28;5037058;28;20044;-72
2021/05/21 08:25:01;;;;;;;5.65;1.35;;;;;;;29.45;23.98;99829.94;5047311;28;20060;-72
2021/05/21 08:27:28;;;;;;;7.05;1.38;;;;;;;28.43;25.25;99829.03;4987661;28;20141;-71
2021/05/21 08:29:56;;;;;;;4.32;1.10;;;;;;;26.46;27.83;99826.50;4986059;28;20066;-72
2021/05/21 08:32:23;;;;;;;8.98;1.08;;;;;;;24.76;30.90;99825.19;5053634;28;20133;-73
2021/05/21 08:34:51;;;;;;;4.40;0.90;;;;;;;24.32;30.98;99808.66;5015837;28;20081;-74
2021/05/21 08:37:20;;;;;;;1.45;0.88;;;;;;;23.33;33.39;99809.59;5006733;28;20048;-72
2021/05/21 08:39:48;;;;;;;3.45;1.27;;;;;;;23.09;34.59;99809.94;4988520;28;20056;-72
2021/05/21 08:42:16;;;;;;;3.88;1.25;;;;;;;23.16;32.82;99806.31;5046864;28;20138;-73
2021/05/21 08:44:49;;;;;;;2.47;1.27;;;;;;;22.58;33.86;99797.41;5064633;28;20145;-73
2021/05/21 08:47:16;;;;;;;3.83;1.08;;;;;;;22.97;33.78;99790.84;5044814;28;20050;-74
2021/05/21 08:49:44;;;;;;;5.97;1.58;;;;;;;22.45;35.06;99787.34;5071306;28;20480;-73
2021/05/21 08:52:11;;;;;;;1.60;1.00;;;;;;;23.38;33.73;99788.34;5047189;28;20048;-73
2021/05/21 08:54:41;;;;;;;4.03;1.23;;;;;;;23.69;33.53;99784.47;5009648;28;20047;-72
2021/05/21 08:57:09;;;;;;;4.65;1.15;;;;;;;22.85;33.95;99770.88;5006048;28;20048;-72
2021/05/21 08:59:37;;;;;;;5.45;1.17;;;;;;;23.22;33.97;99780.53;5033102;28;20403;-72
2021/05/21 09:02:07;;;;;;;8.07;1.45;;;;;;;22.53;34.40;99774.84;4993234;28;20125;-72
2021/05/21 09:04:57;;;;;;;5.18;1.15;;;;;;;23.32;33.73;99761.41;5019625;28;20078;-76
2021/05/21 09:07:33;;;;;;;1.98;0.88;;;;;;;22.81;34.04;99761.53;5044111;28;20054;-75
2021/05/21 09:10:15;;;;;;;5.53;0.90;;;;;;;22.23;34.69;99758.81;5034013;28;20047;-72
2021/05/21 09:12:46;;;;;;;4.15;0.90;;;;;;;21.72;35.37;99762.22;5002221;28;20300;-75
2021/05/21 09:15:18;;;;;;;3.10;1.23;;;;;;;21.71;35.97;99755.19;5054057;28;20183;-73
2021/05/21 09:18:02;;;;;;;3.25;0.90;;;;;;;21.88;35.61;99749.63;4993798;28;20080;-75
2021/05/21 09:20:35;;;;;;;4.35;1.20;;;;;;;21.71;35.61;99744.47;5027134;28;20109;-73
2021/05/21 09:23:13;;;;;;;10.45;1.48;;;;;;;21.55;36.14;99733.09;5034618;28;20111;-74
2021/05/21 09:25:49;;;;;;;8.23;1.00;;;;;;;21.58;36.04;99749.63;5010726;28;20050;-74
2021/05/21 09:28:39;;;;;;;8.07;1.23;;;;;;;20.98;37.66;99742.41;5013211;28;20627;-74
2021/05/21 09:31:22;;;;;;;6.40;1.60;;;;;;;21.00;37.92;99743.09;5012875;28;20055;-73
2021/05/21 09:33:54;;;;;;;3.75;1.20;;;;;;;20.84;38.52;99741.34;4997652;28;20508;-72
2021/05/21 09:36:33;;;;;;;6.25;1.27;;;;;;;20.80;38.93;99737.38;5024561;28;20110;-72
2021/05/21 09:39:00;;;;;;;4.07;1.00;;;;;;;21.61;37.04;99737.69;5044003;28;21732;-72
2021/05/21 09:41:57;;;;;;;26.38;2.10;;;;;;;21.58;35.71;99744.28;5045207;28;20077;-72
2021/05/21 09:44:26;;;;;;;11.25;1.15;;;;;;;20.76;34.33;99752.13;4983954;28;20062;-75
2021/05/21 09:46:54;;;;;;;11.20;1.10;;;;;;;20.46;35.77;99748.44;5044247;28;20066;-72
2021/05/21 09:49:37;;;;;;;8.07;1.25;;;;;;;20.73;34.64;99744.47;4992991;28;20103;-72
2021/05/21 09:52:10;;;;;;;3.97;0.73;;;;;;;20.80;35.08;99744.56;4990166;28;20165;-71
2021/05/21 09:54:57;;;;;;;2.28;0.93;;;;;;;20.89;34.69;99733.66;4994815;28;20055;-74
2021/05/21 09:57:30;;;;;;;4.15;0.90;;;;;;;20.52;36.46;99733.56;5001756;28;20125;-72
2021/05/21 09:59:58;;;;;;;2.42;0.75;;;;;;;20.36;36.74;99731.78;5031915;28;20047;-72
2021/05/21 10:02:30;;;;;;;3.33;0.82;;;;;;;20.05;37.59;99723.75;5034936;28;20336;-71
2021/05/21 10:05:00;;;;;;;8.23;1.08;;;;;;;20.62;36.88;99731.47;5047052;28;20512;-71
2021/05/21 10:07:27;;;;;;;8.10;1.38;;;;;;;21.14;35.71;99723.56;5049534;28;20126;-72
2021/05/21 10:09:54;;;;;;;4.45;1.23;;;;;;;21.30;35.02;99727.97;5005129;28;20082;-71
2021/05/21 10:12:21;;;;;;;10.13;1.17;;;;;;;21.42;35.42;99715.81;4980315;28;20145;-73
2021/05/21 10:14:50;;;;;;;6.47;0.95;;;;;;;21.93;34.43;99699.84;5050476;28;20150;-71
2021/05/21 10:17:18;;;;;;;7.53;1.48;;;;;;;22.17;33.71;99696.03;4992253;28;20377;-72
2021/05/21 10:19:46;;;;;;;4.70;0.90;;;;;;;21.94;32.31;99714.06;5042943;28;20046;-72
2021/05/21 10:22:18;;;;;;;10.13;0.85;;;;;;;21.15;32.98;99708.34;5022154;28;20041;-72
2021/05/21 10:24:47;;;;;;;11.90;1.45;;;;;;;21.07;33.75;99711.91;5013607;28;20043;-70
2021/05/21 10:27:19;;;;;;;5.72;0.88;;;;;;;21.35;32.25;99701.50;5034272;28;20061;-71
2021/05/21 10:29:56;;;;;;;13.70;1.90;;;;;;;21.26;32.75;99707.91;5013237;28;20099;-71
2021/05/21 10:32:29;;;;;;;9.13;2.22;;;;;;;21.06;32.81;99704.91;4980881;28;20053;-71
2021/05/21 10:34:59;;;;;;;6.95;0.98;;;;;;;20.80;33.61;99704.44;5024725;28;20056;-71
2021/05/21 10:37:31;;;;;;;2.47;0.90;;;;;;;20.88;34.04;99712.41;5022526;28;20066;-70
2021/05/21 10:40:05;;;;;;;6.00;1.05;;;;;;;21.15;33.87;99703.81;5014356;28;20089;-70
2021/05/21 10:42:46;;;;;;;9.07;1.17;;;;;;;21.50;33.08;99693.47;5028672;28;20050;-71
2021/05/21 10:45:19;;;;;;;5.20;1.40;;;;;;;21.90;33.09;99684.13;5031574;28;20146;-69
2021/05/21 10:48:00;;;;;;;6.00;1.00;;;;;;;21.98;32.25;99686.72;4991366;28;20058;-69
2021/05/21 10:50:33;;;;;;;7.43;1.00;;;;;;;21.70;32.82;99683.03;5058796;28;20110;-70
2021/05/21 10:53:03;;;;;;;4.97;0.77;;;;;;;22.24;32.20;99675.53;4994525;28;20978;-69
2021/05/21 10:55:54;;;;;;;4.70;1.10;;;;;;;21.94;32.33;99680.06;4986528;28;20050;-70
2021/05/21 10:58:26;;;;;;;6.82;0.77;;;;;;;21.62;32.67;99685.81;4984411;28;20054;-70
2021/05/21 11:01:13;;;;;;;2.05;0.75;;;;;;;21.72;32.09;99664.94;5031320;28;20524;-69
2021/05/21 11:03:56;;;;;;;7.60;1.52;;;;;;;21.93;31.82;99664.16;4979914;28;20046;-70
2021/05/21 11:06:24;;;;;;;2.95;0.82;;;;;;;21.89;32.39;99665.56;5039684;28;20132;-70
2021/05/21 11:09:14;;;;;;;6.38;0.70;;;;;;;21.66;31.75;99676.38;5025563;28;20582;-70
2021/05/21 11:11:44;;;;;;;6.13;0.95;;;;;;;21.35;32.30;99663.19;5021795;28;20043;-70
2021/05/21 11:14:23;;;;;;;3.20;0.90;;;;;;;21.55;32.04;99666.13;4984959;28;20489;-71
2021/05/21 11:16:54;;;;;;;5.18;1.35;;;;;;;21.56;33.03;99659.75;4984853;28;20085;-69
2021/05/21 11:19:24;;;;;;;1.48;0.70;;;;;;;21.19;32.88;99667.63;4982312;28;20742;-70
2021/05/21 11:21:56;;;;;;;9.80;0.90;;;;;;;21.48;32.90;99656.19;5031198;28;20134;-70
2021/05/21 11:24:41;;;;;;;2.80;0.80;;;;;;;21.44;32.51;99643.34;5026233;28;20456;-70
2021/05/21 11:27:11;;;;;;;6.38;1.67;;;;;;;21.84;32.22;99642.03;5043670;28;20055;-69
2021/05/21 11:29:50;;;;;;;6.65;1.38;;;;;;;22.45;31.67;99650.56;5053116;28;20103;-70
2021/05/21 11:32:19;;;;;;;15.88;1.45;;;;;;;21.91;31.58;99634.88;4983497;28;20089;-69
2021/05/21 11:34:47;;;;;;;4.43;0.80;;;;;;;21.83;33.06;99644.88;4983785;28;20098;-71
2021/05/21 11:37:22;;;;;;;6.00;1.65;;;;;;;21.80;32.30;99637.22;5037677;28;20054;-70
2021/05/21 11:39:54;;;;;;;11.18;1.13;;;;;;;21.82;32.04;99635.19;4988810;28;20082;-71
2021/05/21 11:42:26;;;;;;;6.03;1.08;;;;;;;21.57;32.00;99632.81;4987704;28;20174;-72